Golden Shanghai — 9HA2862 — position and weather

sailwx.info

Track history (hours):
 
Tides and Currents Weather Stations Pressure Air Temp Water Temp Dewpoint Dewpoint Depression Visibility Wind Speed Wind Dir Waves Ship Positions

Golden Shanghai

Last reported at 2016-Jun-21 14:25 UTC. Time now 2016-Jul-24 02:53 UTC.
Position N 19°60' W 017°51'.
Warning: this ship's position is 32 days out of date.

Length 292 m; draft 8.9 m.

Type: Cargo ship. MMSI: 256456000.

Date/timePositionNaut miles runAvg speedWind from/ knotsBaromVisibWave heightAir tempDewpointWater temp
2016-Jun-21 14:25N 19°60' W 017°51'8 9.3
2016-Jun-21 13:33N 20°08' W 017°50'47 9.4
2016-Jun-21 08:33N 20°54' W 017°45'42710.2
2016-Jun-19 14:34N 27°40' W 015°19'1010.1
2016-Jun-19 13:34N 27°50' W 015°18'1010.1
2016-Jun-19 12:34N 28°00' W 015°19'8 6.4
2016-Jun-19 11:22N 28°07' W 015°24'0 0.1
2016-Jun-19 10:25N 28°07' W 015°24'0 0.0
2016-Jun-19 09:22N 28°07' W 015°24'0 0.0
2016-Jun-19 08:25N 28°07' W 015°24'0 0.0
2016-Jun-19 07:28N 28°07' W 015°24'0 0.0
2016-Jun-19 06:28N 28°07' W 015°24'0 0.0
2016-Jun-19 05:31N 28°07' W 015°24'0 0.0
2016-Jun-19 04:31N 28°07' W 015°24'0 0.0
2016-Jun-19 03:31N 28°07' W 015°24'0 0.0
2016-Jun-19 02:31N 28°07' W 015°24'0 0.0
2016-Jun-19 01:31N 28°07' W 015°24'1 0.8
2016-Jun-19 00:33N 28°07' W 015°23'7 6.7
2016-Jun-18 23:33N 28°12' W 015°18'9 9.2
2016-Jun-18 22:33N 28°18' W 015°11'1110.6
2016-Jun-18 21:33N 28°26' W 015°02'1110.7
2016-Jun-18 20:33N 28°33' W 014°54'1110.6
2016-Jun-18 19:33N 28°41' W 014°45'1010.3
2016-Jun-18 18:33N 28°49' W 014°37'1210.5
2016-Jun-18 17:27N 28°57' W 014°28'1010.4
2016-Jun-18 16:31N 29°04' W 014°20'1110.1
2016-Jun-18 15:25N 29°12' W 014°11'1010.2
2016-Jun-18 14:24N 29°20' W 014°03'910.1
2016-Jun-18 13:32N 29°26' W 013°56'1210.1
2016-Jun-18 12:17N 29°35' W 013°46'810.3
2016-Jun-18 11:29N 29°41' W 013°40'1110.3
2016-Jun-18 10:23N 29°49' W 013°31'  
2016-Jun-15 04:33N 35°57' W 005°36'7 7.4
2016-Jun-15 03:33N 36°00' W 005°28'7 7.3
2016-Jun-15 02:33N 36°06' W 005°22'1 0.5
2016-Jun-15 01:32N 36°06' W 005°21'0 0.1
2016-Jun-15 00:32N 36°06' W 005°21'0 0.2
2016-Jun-14 23:32N 36°07' W 005°21'0 0.0
2016-Jun-14 22:29N 36°07' W 005°21'0 0.0
2016-Jun-14 21:32N 36°07' W 005°21'0 0.1
2016-Jun-14 20:32N 36°07' W 005°22'0 0.1
2016-Jun-14 19:32N 36°07' W 005°21'0 0.1
2016-Jun-14 18:32N 36°07' W 005°21'0 0.0
2016-Jun-14 17:32N 36°07' W 005°22'0 0.0
2016-Jun-14 16:32N 36°07' W 005°22'0 0.2
2016-Jun-14 15:32N 36°06' W 005°21'0 0.2
2016-Jun-14 14:32N 36°06' W 005°21'2 1.9
2016-Jun-14 13:33N 36°06' W 005°19'8 7.6
2016-Jun-14 12:33N 36°07' W 005°10'177 9.5
2016-Jun-13 18:03N 36°49' W 001°37'610.0
2016-Jun-13 17:28N 36°53' W 001°32'2110.6
2016-Jun-13 15:31N 37°07' W 001°12'1110.9
2016-Jun-13 14:33N 37°14' W 001°02'1111.0
2016-Jun-13 13:33N 37°21' W 000°52'1111.1
2016-Jun-13 12:34N 37°28' W 000°42'1010.0
2016-Jun-13 11:34N 37°35' W 000°32'10 9.7
2016-Jun-13 10:33N 37°43' W 000°26'1010.0
2016-Jun-13 09:33N 37°52' W 000°19'10 9.7
2016-Jun-13 08:33N 37°59' W 000°11'10 9.9
2016-Jun-13 07:33N 38°08' W 000°05'1110.5
2016-Jun-13 06:33N 38°17' E 000°02'1110.9
2016-Jun-13 05:33N 38°26' E 000°09'2210.8
2016-Jun-13 03:33N 38°44' E 000°25'1110.1
2016-Jun-13 02:27N 38°53' E 000°34'910.2
2016-Jun-13 01:33N 38°60' E 000°41'1010.3
2016-Jun-13 00:33N 39°08' E 000°49'1010.2
2016-Jun-12 23:33N 39°16' E 000°58'1010.0
2016-Jun-12 22:33N 39°24' E 001°06'10 9.9
2016-Jun-12 21:33N 39°31' E 001°14'1010.1
2016-Jun-12 20:33N 39°39' E 001°22'1110.6
2016-Jun-12 19:33N 39°47' E 001°31'1110.7
2016-Jun-12 18:33N 39°56' E 001°40'1110.7
2016-Jun-12 17:33N 40°04' E 001°49'1110.7
2016-Jun-12 16:33N 40°12' E 001°58'1110.6
2016-Jun-12 15:33N 40°20' E 002°06'1110.9
2016-Jun-12 14:33N 40°29' E 002°15'1111.2
2016-Jun-12 13:33N 40°38' E 002°25'1111.3
2016-Jun-12 12:33N 40°46' E 002°34'1111.1
2016-Jun-12 11:33N 40°55' E 002°43'1111.2
2016-Jun-12 10:33N 41°04' E 002°52'1111.2
2016-Jun-12 09:33N 41°12' E 003°02'13412.0
2016-Jun-11 22:19N 43°00' E 004°50'810.9
2016-Jun-11 21:33N 43°07' E 004°56'1010.5
2016-Jun-11 20:33N 43°17' E 004°59'9 8.9
2016-Jun-11 19:33N 43°25' E 004°53'1 0.9
2016-Jun-11 18:31N 43°26' E 004°52'0 0.0
2016-Jun-11 17:31N 43°26' E 004°52'0 0.0
2016-Jun-11 16:31N 43°26' E 004°52'0 0.0
2016-Jun-11 15:31N 43°26' E 004°52'0 0.0
2016-Jun-11 14:31N 43°26' E 004°52'  
Track history (hours):
 
Tides and Currents Weather Stations Pressure Air Temp Water Temp Dewpoint Dewpoint Depression Visibility Wind Speed Wind Dir Waves Ship Positions

Golden Shanghai

Last reported at 2016-Jun-21 14:25 UTC. Time now 2016-Jul-24 02:53 UTC.
Position N 19°60' W 017°51'.
Warning: this ship's position is 32 days out of date.

Length 292 m; draft 8.9 m.

Type: Cargo ship. MMSI: 256456000.

Date/timePositionNaut miles runAvg speedWind from/ knotsBaromVisibWave heightAir tempDewpointWater temp
2016-Jun-21 14:25N 19°60' W 017°51'8 9.3
2016-Jun-21 13:33N 20°08' W 017°50'47 9.4
2016-Jun-21 08:33N 20°54' W 017°45'42710.2
2016-Jun-19 14:34N 27°40' W 015°19'1010.1
2016-Jun-19 13:34N 27°50' W 015°18'1010.1
2016-Jun-19 12:34N 28°00' W 015°19'8 6.4
2016-Jun-19 11:22N 28°07' W 015°24'0 0.1
2016-Jun-19 10:25N 28°07' W 015°24'0 0.0
2016-Jun-19 09:22N 28°07' W 015°24'0 0.0
2016-Jun-19 08:25N 28°07' W 015°24'0 0.0
2016-Jun-19 07:28N 28°07' W 015°24'0 0.0
2016-Jun-19 06:28N 28°07' W 015°24'0 0.0
2016-Jun-19 05:31N 28°07' W 015°24'0 0.0
2016-Jun-19 04:31N 28°07' W 015°24'0 0.0
2016-Jun-19 03:31N 28°07' W 015°24'0 0.0
2016-Jun-19 02:31N 28°07' W 015°24'0 0.0
2016-Jun-19 01:31N 28°07' W 015°24'1 0.8
2016-Jun-19 00:33N 28°07' W 015°23'7 6.7
2016-Jun-18 23:33N 28°12' W 015°18'9 9.2
2016-Jun-18 22:33N 28°18' W 015°11'1110.6
2016-Jun-18 21:33N 28°26' W 015°02'1110.7
2016-Jun-18 20:33N 28°33' W 014°54'1110.6
2016-Jun-18 19:33N 28°41' W 014°45'1010.3
2016-Jun-18 18:33N 28°49' W 014°37'1210.5
2016-Jun-18 17:27N 28°57' W 014°28'1010.4
2016-Jun-18 16:31N 29°04' W 014°20'1110.1
2016-Jun-18 15:25N 29°12' W 014°11'1010.2
2016-Jun-18 14:24N 29°20' W 014°03'910.1
2016-Jun-18 13:32N 29°26' W 013°56'1210.1
2016-Jun-18 12:17N 29°35' W 013°46'810.3
2016-Jun-18 11:29N 29°41' W 013°40'1110.3
2016-Jun-18 10:23N 29°49' W 013°31'  
2016-Jun-15 04:33N 35°57' W 005°36'7 7.4
2016-Jun-15 03:33N 36°00' W 005°28'7 7.3
2016-Jun-15 02:33N 36°06' W 005°22'1 0.5
2016-Jun-15 01:32N 36°06' W 005°21'0 0.1
2016-Jun-15 00:32N 36°06' W 005°21'0 0.2
2016-Jun-14 23:32N 36°07' W 005°21'0 0.0
2016-Jun-14 22:29N 36°07' W 005°21'0 0.0
2016-Jun-14 21:32N 36°07' W 005°21'0 0.1
2016-Jun-14 20:32N 36°07' W 005°22'0 0.1
2016-Jun-14 19:32N 36°07' W 005°21'0 0.1
2016-Jun-14 18:32N 36°07' W 005°21'0 0.0
2016-Jun-14 17:32N 36°07' W 005°22'0 0.0
2016-Jun-14 16:32N 36°07' W 005°22'0 0.2
2016-Jun-14 15:32N 36°06' W 005°21'0 0.2
2016-Jun-14 14:32N 36°06' W 005°21'2 1.9
2016-Jun-14 13:33N 36°06' W 005°19'8 7.6
2016-Jun-14 12:33N 36°07' W 005°10'177 9.5
2016-Jun-13 18:03N 36°49' W 001°37'610.0
2016-Jun-13 17:28N 36°53' W 001°32'2110.6
2016-Jun-13 15:31N 37°07' W 001°12'1110.9
2016-Jun-13 14:33N 37°14' W 001°02'1111.0
2016-Jun-13 13:33N 37°21' W 000°52'1111.1
2016-Jun-13 12:34N 37°28' W 000°42'1010.0
2016-Jun-13 11:34N 37°35' W 000°32'10 9.7
2016-Jun-13 10:33N 37°43' W 000°26'1010.0
2016-Jun-13 09:33N 37°52' W 000°19'10 9.7
2016-Jun-13 08:33N 37°59' W 000°11'10 9.9
2016-Jun-13 07:33N 38°08' W 000°05'1110.5
2016-Jun-13 06:33N 38°17' E 000°02'1110.9
2016-Jun-13 05:33N 38°26' E 000°09'2210.8
2016-Jun-13 03:33N 38°44' E 000°25'1110.1
2016-Jun-13 02:27N 38°53' E 000°34'910.2
2016-Jun-13 01:33N 38°60' E 000°41'1010.3
2016-Jun-13 00:33N 39°08' E 000°49'1010.2
2016-Jun-12 23:33N 39°16' E 000°58'1010.0
2016-Jun-12 22:33N 39°24' E 001°06'10 9.9
2016-Jun-12 21:33N 39°31' E 001°14'1010.1
2016-Jun-12 20:33N 39°39' E 001°22'1110.6
2016-Jun-12 19:33N 39°47' E 001°31'1110.7
2016-Jun-12 18:33N 39°56' E 001°40'1110.7
2016-Jun-12 17:33N 40°04' E 001°49'1110.7
2016-Jun-12 16:33N 40°12' E 001°58'1110.6
2016-Jun-12 15:33N 40°20' E 002°06'1110.9
2016-Jun-12 14:33N 40°29' E 002°15'1111.2
2016-Jun-12 13:33N 40°38' E 002°25'1111.3
2016-Jun-12 12:33N 40°46' E 002°34'1111.1
2016-Jun-12 11:33N 40°55' E 002°43'1111.2
2016-Jun-12 10:33N 41°04' E 002°52'1111.2
2016-Jun-12 09:33N 41°12' E 003°02'13412.0
2016-Jun-11 22:19N 43°00' E 004°50'810.9
2016-Jun-11 21:33N 43°07' E 004°56'1010.5
2016-Jun-11 20:33N 43°17' E 004°59'9 8.9
2016-Jun-11 19:33N 43°25' E 004°53'1 0.9
2016-Jun-11 18:31N 43°26' E 004°52'0 0.0
2016-Jun-11 17:31N 43°26' E 004°52'0 0.0
2016-Jun-11 16:31N 43°26' E 004°52'0 0.0
2016-Jun-11 15:31N 43°26' E 004°52'0 0.0
2016-Jun-11 14:31N 43°26' E 004°52'  

Dump ship's entire track history